createdAt,value
2022-09-03T00:00:03.545Z,16.15
2022-09-03T00:01:03.544Z,16.14
2022-09-03T00:02:03.569Z,16.11
2022-09-03T00:03:03.563Z,16.12
2022-09-03T00:04:03.504Z,16.12
2022-09-03T00:05:03.495Z,16.12
2022-09-03T00:06:03.481Z,16.12
2022-09-03T00:07:03.476Z,16.15
2022-09-03T00:08:03.471Z,16.17
2022-09-03T00:09:03.458Z,16.15
2022-09-03T00:10:03.429Z,16.14
2022-09-03T00:11:03.431Z,16.12
2022-09-03T00:12:03.425Z,16.11
2022-09-03T00:13:03.408Z,16.11
2022-09-03T00:14:03.387Z,16.07
2022-09-03T00:15:03.378Z,16.04
2022-09-03T00:16:03.417Z,16.05
2022-09-03T00:17:03.360Z,16.04
2022-09-03T00:18:03.369Z,16.04
2022-09-03T00:19:03.351Z,16.04
2022-09-03T00:20:03.339Z,16.01
2022-09-03T00:21:03.318Z,16.01
2022-09-03T00:22:03.300Z,16.04
2022-09-03T00:23:03.289Z,16.01
2022-09-03T00:24:03.269Z,16.01
2022-09-03T00:25:03.278Z,16.01
2022-09-03T00:26:03.251Z,16.02
2022-09-03T00:27:03.240Z,15.97
2022-09-03T00:28:03.250Z,15.96
2022-09-03T00:29:03.212Z,15.97
2022-09-03T00:30:03.201Z,15.96
2022-09-03T00:31:03.306Z,15.94
2022-09-03T00:32:03.180Z,15.93
2022-09-03T00:33:03.182Z,15.92
2022-09-03T00:34:03.171Z,15.93
2022-09-03T00:35:03.150Z,15.94
2022-09-03T00:36:03.131Z,15.93
2022-09-03T00:37:03.122Z,15.93
2022-09-03T00:38:03.144Z,15.92
2022-09-03T00:39:03.094Z,15.93
2022-09-03T00:40:03.181Z,15.92
2022-09-03T00:41:03.074Z,15.93
2022-09-03T00:42:03.083Z,15.89
2022-09-03T00:43:03.062Z,15.89
2022-09-03T00:44:03.069Z,15.87
2022-09-03T00:45:03.032Z,15.89
2022-09-03T00:46:03.086Z,15.90
2022-09-03T00:47:03.005Z,15.89
2022-09-03T00:48:03.033Z,15.90
2022-09-03T00:49:02.986Z,15.90
2022-09-03T00:50:02.974Z,15.90
2022-09-03T00:51:02.967Z,15.93
2022-09-03T00:52:02.977Z,15.94
2022-09-03T00:53:02.934Z,15.92
2022-09-03T00:54:02.950Z,15.92
2022-09-03T00:55:02.915Z,15.90
2022-09-03T00:56:02.906Z,15.92
2022-09-03T00:57:02.907Z,15.92
2022-09-03T00:58:02.895Z,15.90
2022-09-03T00:59:02.881Z,15.90
2022-09-03T01:00:02.856Z,15.90
2022-09-03T01:01:02.846Z,15.92
2022-09-03T01:02:02.966Z,15.90
2022-09-03T01:03:02.840Z,15.89
2022-09-03T01:04:02.826Z,15.87
2022-09-03T01:05:02.808Z,15.86
2022-09-03T01:06:02.790Z,15.83
2022-09-03T01:07:02.777Z,15.80
2022-09-03T01:08:02.797Z,15.75
2022-09-03T01:09:02.765Z,15.71
2022-09-03T01:10:02.749Z,15.69
2022-09-03T01:11:02.748Z,15.69
2022-09-03T01:12:02.720Z,15.67
2022-09-03T01:13:02.720Z,15.67
2022-09-03T01:14:02.721Z,15.65
2022-09-03T01:15:02.711Z,15.60
2022-09-03T01:16:02.701Z,15.60
2022-09-03T01:17:02.670Z,15.57
2022-09-03T01:18:02.680Z,15.57
2022-09-03T01:19:02.692Z,15.56
2022-09-03T01:20:02.639Z,15.53
2022-09-03T01:21:02.639Z,15.53
2022-09-03T01:22:02.620Z,15.51
2022-09-03T01:23:02.630Z,15.51
2022-09-03T01:24:02.605Z,15.49
2022-09-03T01:25:02.591Z,15.44
2022-09-03T01:26:02.570Z,15.41
2022-09-03T01:27:02.583Z,15.41
2022-09-03T01:28:02.552Z,15.41
2022-09-03T01:29:02.550Z,15.39
2022-09-03T01:30:02.534Z,15.38
2022-09-03T01:31:02.553Z,15.38
2022-09-03T01:32:02.529Z,15.36
2022-09-03T01:33:02.494Z,15.35
2022-09-03T01:34:02.493Z,15.36
2022-09-03T01:35:02.495Z,15.39
2022-09-03T01:36:02.473Z,15.41
2022-09-03T01:37:02.450Z,15.41
2022-09-03T01:38:02.466Z,15.41
2022-09-03T01:39:02.436Z,15.44
2022-09-03T01:40:02.492Z,15.41
2022-09-03T01:41:02.414Z,15.38
2022-09-03T01:42:02.412Z,15.38
2022-09-03T01:43:02.407Z,15.38
2022-09-03T01:44:02.384Z,15.38
2022-09-03T01:45:02.364Z,15.43
2022-09-03T01:46:02.420Z,15.39
2022-09-03T01:47:02.357Z,15.43
2022-09-03T01:48:02.348Z,15.43
2022-09-03T01:49:02.321Z,15.39
2022-09-03T01:50:02.316Z,15.41
2022-09-03T01:51:02.310Z,15.43
2022-09-03T01:52:02.297Z,15.43
2022-09-03T01:53:02.296Z,15.43
2022-09-03T01:54:02.277Z,15.44
2022-09-03T01:55:02.259Z,15.43
2022-09-03T01:56:02.250Z,15.44
2022-09-03T01:57:02.228Z,15.46
2022-09-03T01:58:02.247Z,15.47
2022-09-03T01:59:02.216Z,15.46
2022-09-03T02:00:02.198Z,15.50
2022-09-03T02:01:02.191Z,15.53
2022-09-03T02:02:02.248Z,15.51
2022-09-03T02:03:02.214Z,15.53
2022-09-03T02:04:02.160Z,15.56
2022-09-03T02:05:02.158Z,15.59
2022-09-03T02:06:02.131Z,15.60
2022-09-03T02:07:02.131Z,15.65
2022-09-03T02:08:02.138Z,15.68
2022-09-03T02:09:02.099Z,15.71
2022-09-03T02:10:02.085Z,15.74
2022-09-03T02:11:02.151Z,15.74
2022-09-03T02:12:02.070Z,15.78
2022-09-03T02:13:02.061Z,15.80
2022-09-03T02:14:02.050Z,15.80
2022-09-03T02:15:02.039Z,15.83
2022-09-03T02:16:02.091Z,15.84
2022-09-03T02:17:02.010Z,15.86
2022-09-03T02:18:02.027Z,15.86
2022-09-03T02:19:01.995Z,15.87
2022-09-03T02:20:01.971Z,15.86
2022-09-03T02:21:01.990Z,15.89
2022-09-03T02:22:01.960Z,15.87
2022-09-03T02:23:01.983Z,15.87
2022-09-03T02:24:01.933Z,15.89
2022-09-03T02:25:01.938Z,15.93
2022-09-03T02:26:01.902Z,15.93
2022-09-03T02:27:01.900Z,15.96
2022-09-03T02:28:01.903Z,15.97
2022-09-03T02:29:01.894Z,16.01
2022-09-03T02:30:01.861Z,16.01
2022-09-03T02:31:01.931Z,16.04
2022-09-03T02:32:01.859Z,16.02
2022-09-03T02:33:01.844Z,16.04
2022-09-03T02:34:01.838Z,16.02
2022-09-03T02:35:01.815Z,16.02
2022-09-03T02:36:01.793Z,16.00
2022-09-03T02:37:01.775Z,16.02
2022-09-03T02:38:01.790Z,16.04
2022-09-03T02:39:01.777Z,16.07
2022-09-03T02:40:01.822Z,16.08
2022-09-03T02:41:01.747Z,16.08
2022-09-03T02:42:01.744Z,16.08
2022-09-03T02:43:01.725Z,16.09
2022-09-03T02:44:01.723Z,16.08
2022-09-03T02:45:01.702Z,16.08
2022-09-03T02:46:01.754Z,16.09
2022-09-03T02:47:01.677Z,16.08
2022-09-03T02:48:01.689Z,16.07
2022-09-03T02:49:01.655Z,16.08
2022-09-03T02:50:01.627Z,16.07
2022-09-03T02:51:01.639Z,16.04
2022-09-03T02:52:02.618Z,16.02
2022-09-03T02:53:01.615Z,16.01
2022-09-03T02:54:01.587Z,15.97
2022-09-03T02:55:01.602Z,16.00
2022-09-03T02:56:01.567Z,15.97
2022-09-03T02:57:01.551Z,15.96
2022-09-03T02:58:01.569Z,15.96
2022-09-03T02:59:01.542Z,15.94
2022-09-03T03:00:01.519Z,15.94
2022-09-03T03:01:01.595Z,15.94
2022-09-03T03:02:01.509Z,15.93
2022-09-03T03:03:01.493Z,15.92
2022-09-03T03:04:01.482Z,15.92
2022-09-03T03:05:01.478Z,15.89
2022-09-03T03:06:01.466Z,15.84
2022-09-03T03:07:01.430Z,15.82
2022-09-03T03:08:01.440Z,15.80
2022-09-03T03:09:01.423Z,15.83
2022-09-03T03:10:01.401Z,15.86
2022-09-03T03:11:01.400Z,15.84
2022-09-03T03:12:01.390Z,15.84
2022-09-03T03:13:01.383Z,15.86
2022-09-03T03:14:01.365Z,15.84
2022-09-03T03:15:01.348Z,15.83
2022-09-03T03:16:01.336Z,15.83
2022-09-03T03:17:01.344Z,15.78
2022-09-03T03:18:01.346Z,15.76
2022-09-03T03:19:01.317Z,15.75
2022-09-03T03:20:01.295Z,15.74
2022-09-03T03:21:01.282Z,15.71
2022-09-03T03:22:01.273Z,15.69
2022-09-03T03:23:01.274Z,15.65
2022-09-03T03:24:01.245Z,15.64
2022-09-03T03:25:01.243Z,15.64
2022-09-03T03:26:01.224Z,15.62
2022-09-03T03:27:01.214Z,15.59
2022-09-03T03:28:01.240Z,15.57
2022-09-03T03:29:01.197Z,15.57
2022-09-03T03:30:01.183Z,15.57
2022-09-03T03:31:01.247Z,15.59
2022-09-03T03:32:01.178Z,15.59
2022-09-03T03:33:01.156Z,15.60
2022-09-03T03:34:01.126Z,15.62
2022-09-03T03:35:01.139Z,15.64
2022-09-03T03:36:01.106Z,15.65
2022-09-03T03:37:01.111Z,15.64
2022-09-03T03:38:01.107Z,15.65
2022-09-03T03:39:01.096Z,15.68
2022-09-03T03:40:01.108Z,15.69
2022-09-03T03:41:01.067Z,15.72
2022-09-03T03:42:01.065Z,15.74
2022-09-03T03:43:01.047Z,15.75
2022-09-03T03:44:01.018Z,15.74
2022-09-03T03:45:01.019Z,15.74
2022-09-03T03:46:01.047Z,15.74
2022-09-03T03:47:01.005Z,15.75
2022-09-03T03:48:01.067Z,15.72
2022-09-03T03:49:00.976Z,15.72
2022-09-03T03:50:00.957Z,15.69
2022-09-03T03:51:00.964Z,15.71
2022-09-03T03:52:00.947Z,15.72
2022-09-03T03:53:00.938Z,15.72
2022-09-03T03:54:04.803Z,15.72
2022-09-03T03:55:00.908Z,15.72
2022-09-03T03:56:00.899Z,15.71
2022-09-03T03:57:00.881Z,15.72
2022-09-03T03:58:00.881Z,15.72
2022-09-03T03:59:00.885Z,15.71
2022-09-03T04:00:00.841Z,15.74
2022-09-03T04:01:00.859Z,15.74
2022-09-03T04:02:00.845Z,15.72
2022-09-03T04:03:00.851Z,15.74
2022-09-03T04:04:00.806Z,15.71
2022-09-03T04:05:00.806Z,15.72
2022-09-03T04:06:00.792Z,15.74
2022-09-03T04:07:00.765Z,15.75
2022-09-03T04:08:00.779Z,15.78
2022-09-03T04:09:00.751Z,15.80
2022-09-03T04:10:00.749Z,15.82
2022-09-03T04:11:00.740Z,15.82
2022-09-03T04:12:00.723Z,15.83
2022-09-03T04:13:00.738Z,15.86
2022-09-03T04:14:00.693Z,15.87
2022-09-03T04:15:00.711Z,15.87
2022-09-03T04:16:00.674Z,15.92
2022-09-03T04:17:00.701Z,15.92
2022-09-03T04:18:00.678Z,15.93
2022-09-03T04:19:00.644Z,15.96
2022-09-03T04:20:00.633Z,16.00
2022-09-03T04:21:00.629Z,16.01
2022-09-03T04:22:00.604Z,16.04
2022-09-03T04:23:00.614Z,16.05
2022-09-03T04:24:00.587Z,16.07
2022-09-03T04:25:00.583Z,16.09
2022-09-03T04:26:00.563Z,16.12
2022-09-03T04:27:00.546Z,16.14
2022-09-03T04:28:00.748Z,16.20
2022-09-03T04:29:00.526Z,16.20
2022-09-03T04:30:00.516Z,16.21
2022-09-03T04:31:00.580Z,16.23
2022-09-03T04:32:00.500Z,16.23
2022-09-03T04:33:00.498Z,16.24
2022-09-03T04:34:00.460Z,16.25
2022-09-03T04:35:00.469Z,16.28
2022-09-03T04:36:00.452Z,16.30
2022-09-03T04:37:00.444Z,16.33
2022-09-03T04:38:00.447Z,16.34
2022-09-03T04:39:00.410Z,16.35
2022-09-03T04:40:00.481Z,16.34
2022-09-03T04:41:00.406Z,16.38
2022-09-03T04:42:00.368Z,16.38
2022-09-03T04:43:00.367Z,16.39
2022-09-03T04:44:00.342Z,16.41
2022-09-03T04:45:00.338Z,16.45
2022-09-03T04:46:00.430Z,16.46
2022-09-03T04:47:00.330Z,16.48
2022-09-03T04:48:00.322Z,16.50
2022-09-03T04:49:00.291Z,16.50
2022-09-03T04:50:00.269Z,16.50
2022-09-03T04:51:00.270Z,16.52
2022-09-03T04:52:00.261Z,16.52
2022-09-03T04:53:03.462Z,16.53
2022-09-03T04:54:01.256Z,16.56
2022-09-03T04:55:00.219Z,16.56
2022-09-03T04:56:00.206Z,16.57
2022-09-03T04:57:00.192Z,16.60
2022-09-03T04:58:00.201Z,16.61
2022-09-03T04:59:00.180Z,16.64
2022-09-03T05:00:00.164Z,16.64
2022-09-03T05:01:00.222Z,16.67
2022-09-03T05:02:00.233Z,16.68
2022-09-03T05:03:00.130Z,16.71
2022-09-03T05:04:00.129Z,16.73
2022-09-03T05:05:00.093Z,16.76
2022-09-03T05:06:00.092Z,16.79
2022-09-03T05:07:00.073Z,16.81
2022-09-03T05:08:00.083Z,16.83
2022-09-03T05:09:00.056Z,16.85
2022-09-03T05:10:00.033Z,16.85
2022-09-03T05:11:00.024Z,16.88
2022-09-03T05:12:00.034Z,16.91
2022-09-03T05:13:00.004Z,16.94
2022-09-03T05:13:59.993Z,16.96
2022-09-03T05:14:59.976Z,16.97
2022-09-03T05:16:00.002Z,16.98
2022-09-03T05:17:00.001Z,17.01
2022-09-03T05:17:59.959Z,17.03
2022-09-03T05:18:59.928Z,17.06
2022-09-03T05:19:59.927Z,17.07
2022-09-03T05:20:59.924Z,17.08
2022-09-03T05:21:59.906Z,17.11
2022-09-03T05:22:59.897Z,17.14
2022-09-03T05:23:59.876Z,17.15
2022-09-03T05:24:59.866Z,17.16
2022-09-03T05:25:59.855Z,17.19
2022-09-03T05:26:59.841Z,17.19
2022-09-03T05:27:59.848Z,17.21
2022-09-03T05:28:59.821Z,17.22
2022-09-03T05:29:59.808Z,17.25
2022-09-03T05:30:59.813Z,17.26
2022-09-03T05:31:59.818Z,17.28
2022-09-03T05:32:59.790Z,17.30
2022-09-03T05:33:59.753Z,17.31
2022-09-03T05:34:59.749Z,17.34
2022-09-03T05:35:59.732Z,17.37
2022-09-03T05:36:59.728Z,17.38
2022-09-03T05:37:59.729Z,17.40
2022-09-03T05:38:59.705Z,17.44
2022-09-03T05:39:59.727Z,17.44
2022-09-03T05:40:59.680Z,17.46
2022-09-03T05:41:59.661Z,17.46
2022-09-03T05:42:59.670Z,17.51
2022-09-03T05:43:59.850Z,17.52
2022-09-03T05:44:59.629Z,17.54
2022-09-03T05:45:59.652Z,17.54
2022-09-03T05:46:59.607Z,17.55
2022-09-03T05:47:59.628Z,17.56
2022-09-03T05:48:59.580Z,17.59
2022-09-03T05:49:59.563Z,17.62
2022-09-03T05:50:59.554Z,17.64
2022-09-03T05:51:59.542Z,17.64
2022-09-03T05:52:59.534Z,17.68
2022-09-03T05:53:59.527Z,17.70
2022-09-03T05:54:59.504Z,17.70
2022-09-03T05:55:59.483Z,17.71
2022-09-03T05:56:59.473Z,17.71
2022-09-03T05:57:59.497Z,17.74
2022-09-03T05:58:59.468Z,17.77
2022-09-03T05:59:59.434Z,17.78
2022-09-03T06:00:59.437Z,17.81
2022-09-03T06:02:00.353Z,17.82
2022-09-03T06:02:59.455Z,17.86
2022-09-03T06:03:59.396Z,17.89
2022-09-03T06:04:59.378Z,17.92
2022-09-03T06:05:59.378Z,17.95
2022-09-03T06:06:59.347Z,17.96
2022-09-03T06:07:59.406Z,17.97
2022-09-03T06:08:59.337Z,17.99
2022-09-03T06:09:59.338Z,17.99
2022-09-03T06:10:59.325Z,18.02
2022-09-03T06:12:00.022Z,18.07
2022-09-03T06:12:59.305Z,18.11
2022-09-03T06:13:59.270Z,18.14
2022-09-03T06:14:59.285Z,18.20
2022-09-03T06:15:59.297Z,18.23
2022-09-03T06:16:59.280Z,18.26
2022-09-03T06:17:59.247Z,18.29
2022-09-03T06:18:59.667Z,18.29
2022-09-03T06:19:59.204Z,18.30
2022-09-03T06:20:59.203Z,18.33
2022-09-03T06:21:59.193Z,18.36
2022-09-03T06:22:59.178Z,18.39
2022-09-03T06:23:59.655Z,18.42
2022-09-03T06:24:59.140Z,18.45
2022-09-03T06:26:04.457Z,18.48
2022-09-03T06:27:00.116Z,18.51
2022-09-03T06:27:59.131Z,18.50
2022-09-03T06:28:59.107Z,18.52
2022-09-03T06:29:59.079Z,18.52
2022-09-03T06:30:59.092Z,18.51
2022-09-03T06:31:59.097Z,18.54
2022-09-03T06:32:59.061Z,18.58
2022-09-03T06:34:03.822Z,18.63
2022-09-03T06:35:00.026Z,18.63
2022-09-03T06:35:59.013Z,18.65
2022-09-03T06:36:58.994Z,18.66
2022-09-03T06:37:59.033Z,18.70
2022-09-03T06:38:58.982Z,18.70
2022-09-03T06:39:59.009Z,18.72
2022-09-03T06:40:58.955Z,18.73
2022-09-03T06:41:58.953Z,18.76
2022-09-03T06:42:58.944Z,18.76
2022-09-03T06:43:58.924Z,18.75
2022-09-03T06:44:58.913Z,18.75
2022-09-03T06:45:58.915Z,18.72
2022-09-03T06:46:58.884Z,18.70
2022-09-03T06:47:58.885Z,18.63
2022-09-03T06:48:58.878Z,18.65
2022-09-03T06:49:58.845Z,18.63
2022-09-03T06:50:58.850Z,18.63
2022-09-03T06:51:58.826Z,18.62
2022-09-03T06:52:58.835Z,18.62
2022-09-03T06:53:58.811Z,18.63
2022-09-03T06:54:58.813Z,18.67
2022-09-03T06:55:58.767Z,18.66
2022-09-03T06:56:58.779Z,18.69
2022-09-03T06:57:58.778Z,18.70
2022-09-03T06:58:58.742Z,18.72
2022-09-03T06:59:58.742Z,18.75
2022-09-03T07:00:59.073Z,18.72
2022-09-03T07:01:58.851Z,18.72
2022-09-03T07:02:58.728Z,18.75
2022-09-03T07:03:58.699Z,18.73
2022-09-03T07:04:58.678Z,18.70
2022-09-03T07:05:58.661Z,18.70
2022-09-03T07:06:58.667Z,18.73
2022-09-03T07:07:58.648Z,18.73
2022-09-03T07:08:58.629Z,18.70
2022-09-03T07:09:58.631Z,18.69
2022-09-03T07:10:58.611Z,18.60
2022-09-03T07:11:58.599Z,18.58
2022-09-03T07:12:58.611Z,18.57
2022-09-03T07:13:58.576Z,18.52
2022-09-03T07:14:58.562Z,18.51
2022-09-03T07:15:58.572Z,18.47
2022-09-03T07:16:58.569Z,18.35
2022-09-03T07:17:58.541Z,17.96
2022-09-03T07:18:58.522Z,17.71
2022-09-03T07:19:58.513Z,17.46
2022-09-03T07:20:58.493Z,17.25
2022-09-03T07:21:58.502Z,17.03
2022-09-03T07:22:58.495Z,16.82
2022-09-03T07:23:58.453Z,16.71
2022-09-03T07:24:58.446Z,16.64
2022-09-03T07:25:58.446Z,16.58
2022-09-03T07:26:58.450Z,16.50
2022-09-03T07:27:58.405Z,16.34
2022-09-03T07:28:58.422Z,16.24
2022-09-03T07:29:58.374Z,16.15
2022-09-03T07:30:58.382Z,16.12
2022-09-03T07:31:58.416Z,16.08
2022-09-03T07:32:58.362Z,15.97
2022-09-03T07:33:58.344Z,15.96
2022-09-03T07:34:58.333Z,15.97
2022-09-03T07:35:58.315Z,15.92
2022-09-03T07:36:58.305Z,15.84
2022-09-03T07:37:58.297Z,15.82
2022-09-03T07:38:58.280Z,15.80
2022-09-03T07:39:58.338Z,15.80
2022-09-03T07:40:58.257Z,15.80
2022-09-03T07:41:58.286Z,15.80
2022-09-03T07:42:58.217Z,15.78
2022-09-03T07:43:58.217Z,15.82
2022-09-03T07:44:58.207Z,15.76
2022-09-03T07:45:58.201Z,15.72
2022-09-03T07:46:58.260Z,15.75
2022-09-03T07:47:58.179Z,15.72
2022-09-03T07:48:58.192Z,15.71
2022-09-03T07:49:58.168Z,15.74
2022-09-03T07:50:58.148Z,15.75
2022-09-03T07:51:58.149Z,15.75
2022-09-03T07:52:58.099Z,15.69
2022-09-03T07:53:58.129Z,15.72
2022-09-03T07:54:58.090Z,15.69
2022-09-03T07:55:58.071Z,15.67
2022-09-03T07:56:58.071Z,15.67
2022-09-03T07:57:58.072Z,15.64
2022-09-03T07:58:58.031Z,15.59
2022-09-03T07:59:58.037Z,15.59
2022-09-03T08:00:58.056Z,15.60
2022-09-03T08:01:58.040Z,15.59
2022-09-03T08:02:58.004Z,15.60
2022-09-03T08:03:58.030Z,15.62
2022-09-03T08:04:57.977Z,15.67
2022-09-03T08:05:57.971Z,15.64
2022-09-03T08:06:58.005Z,15.64
2022-09-03T08:07:57.958Z,15.65
2022-09-03T08:09:00.864Z,15.68
2022-09-03T08:09:58.924Z,15.69
2022-09-03T08:10:57.938Z,15.72
2022-09-03T08:11:57.907Z,15.75
2022-09-03T08:12:57.941Z,15.75
2022-09-03T08:13:57.872Z,15.74
2022-09-03T08:14:57.889Z,15.80
2022-09-03T08:15:57.920Z,15.83
2022-09-03T08:16:57.881Z,15.84
2022-09-03T08:18:03.450Z,15.87
2022-09-03T08:18:58.814Z,15.90
2022-09-03T08:19:57.806Z,15.93
2022-09-03T08:20:57.815Z,16.01
2022-09-03T08:21:57.796Z,16.05
2022-09-03T08:22:57.785Z,16.09
2022-09-03T08:23:57.767Z,16.09
2022-09-03T08:24:57.755Z,16.09
2022-09-03T08:25:57.737Z,16.14
2022-09-03T08:26:57.756Z,16.21
2022-09-03T08:27:57.715Z,16.25
2022-09-03T08:28:57.708Z,16.33
2022-09-03T08:29:57.723Z,16.39
2022-09-03T08:30:57.687Z,16.50
2022-09-03T08:31:59.609Z,16.60
2022-09-03T08:32:57.667Z,16.71
2022-09-03T08:33:57.655Z,16.81
2022-09-03T08:34:57.627Z,16.89
2022-09-03T08:35:57.649Z,16.97
2022-09-03T08:36:57.608Z,17.04
2022-09-03T08:37:57.629Z,17.08
2022-09-03T08:38:57.581Z,17.12
2022-09-03T08:39:57.714Z,17.16
2022-09-03T08:40:57.559Z,17.19
2022-09-03T08:41:57.586Z,17.25
2022-09-03T08:42:57.538Z,17.28
2022-09-03T08:43:57.529Z,17.31
2022-09-03T08:44:58.514Z,17.34
2022-09-03T08:45:57.511Z,17.37
2022-09-03T08:46:57.555Z,17.36
2022-09-03T08:47:57.485Z,17.30
2022-09-03T08:48:57.471Z,17.28
2022-09-03T08:49:57.467Z,17.31
2022-09-03T08:50:57.445Z,17.33
2022-09-03T08:51:57.462Z,17.38
2022-09-03T08:52:57.441Z,17.36
2022-09-03T08:53:57.434Z,17.40
2022-09-03T08:54:57.403Z,17.44
2022-09-03T08:55:57.392Z,17.44
2022-09-03T08:56:57.383Z,17.48
2022-09-03T08:57:57.364Z,17.51
2022-09-03T08:58:57.363Z,17.52
2022-09-03T08:59:57.341Z,17.58
2022-09-03T09:00:57.333Z,17.66
2022-09-03T09:01:57.410Z,17.72
2022-09-03T09:02:57.345Z,17.81
2022-09-03T09:03:57.297Z,17.90
2022-09-03T09:04:57.284Z,18.03
2022-09-03T09:05:57.262Z,18.15
2022-09-03T09:06:57.336Z,18.26
2022-09-03T09:07:57.248Z,18.36
2022-09-03T09:08:57.262Z,18.45
2022-09-03T09:09:57.219Z,18.55
2022-09-03T09:10:57.230Z,18.60
2022-09-03T09:11:57.217Z,18.62
2022-09-03T09:12:57.186Z,18.70
2022-09-03T09:13:57.184Z,18.78
2022-09-03T09:14:57.166Z,18.81
2022-09-03T09:15:57.172Z,18.88
2022-09-03T09:16:57.156Z,18.95
2022-09-03T09:17:57.129Z,19.08
2022-09-03T09:18:57.126Z,19.18
2022-09-03T09:19:57.099Z,19.25
2022-09-03T09:20:57.137Z,19.36
2022-09-03T09:21:57.357Z,19.46
2022-09-03T09:22:57.076Z,19.50
2022-09-03T09:23:57.078Z,19.54
2022-09-03T09:24:57.059Z,19.58
2022-09-03T09:25:57.040Z,19.63
2022-09-03T09:26:57.029Z,19.66
2022-09-03T09:27:57.019Z,19.76
2022-09-03T09:28:57.024Z,19.78
2022-09-03T09:29:56.990Z,19.81
2022-09-03T09:30:57.101Z,19.76
2022-09-03T09:31:56.981Z,19.71
2022-09-03T09:32:56.959Z,19.68
2022-09-03T09:33:56.961Z,19.69
2022-09-03T09:34:56.949Z,19.69
2022-09-03T09:35:56.975Z,19.66
2022-09-03T09:36:56.931Z,19.54
2022-09-03T09:37:56.915Z,19.37
2022-09-03T09:38:56.913Z,19.29
2022-09-03T09:39:56.950Z,19.31
2022-09-03T09:40:56.872Z,19.22
2022-09-03T09:41:56.890Z,19.21
2022-09-03T09:42:56.843Z,19.25
2022-09-03T09:43:56.844Z,19.26
2022-09-03T09:44:56.814Z,19.26
2022-09-03T09:45:56.862Z,19.25
2022-09-03T09:46:56.865Z,19.19
2022-09-03T09:47:56.793Z,18.95
2022-09-03T09:48:56.774Z,18.91
2022-09-03T09:49:56.786Z,18.95
2022-09-03T09:50:56.795Z,19.00
2022-09-03T09:51:56.745Z,19.06
2022-09-03T09:52:59.156Z,19.13
2022-09-03T09:53:56.736Z,19.19
2022-09-03T09:54:56.726Z,19.25
2022-09-03T09:55:56.720Z,19.31
2022-09-03T09:56:56.697Z,19.32
2022-09-03T09:57:56.687Z,19.40
2022-09-03T09:58:56.667Z,19.55
2022-09-03T09:59:56.669Z,19.63
2022-09-03T10:00:56.659Z,19.76
2022-09-03T10:01:56.683Z,19.87
2022-09-03T10:02:56.683Z,19.87
2022-09-03T10:03:56.608Z,19.92
2022-09-03T10:04:56.599Z,19.94
2022-09-03T10:05:56.619Z,19.96
2022-09-03T10:06:56.589Z,19.92
2022-09-03T10:07:56.568Z,19.86
2022-09-03T10:08:56.563Z,19.77
2022-09-03T10:09:56.561Z,19.73
2022-09-03T10:10:56.550Z,19.71
2022-09-03T10:11:57.258Z,19.66
2022-09-03T10:12:56.530Z,19.62
2022-09-03T10:13:56.499Z,19.63
2022-09-03T10:14:56.488Z,19.62
2022-09-03T10:15:56.527Z,19.63
2022-09-03T10:16:56.481Z,19.68
2022-09-03T10:17:56.441Z,19.73
2022-09-03T10:18:56.453Z,19.78
2022-09-03T10:19:56.432Z,19.77
2022-09-03T10:20:56.422Z,19.78
2022-09-03T10:21:56.423Z,19.78
2022-09-03T10:22:57.459Z,19.80
2022-09-03T10:23:56.471Z,19.83
2022-09-03T10:24:56.384Z,19.86
2022-09-03T10:25:56.383Z,19.91
2022-09-03T10:26:56.381Z,20.01
2022-09-03T10:27:56.334Z,20.11
2022-09-03T10:28:56.982Z,20.20
2022-09-03T10:29:56.336Z,20.33
2022-09-03T10:30:56.401Z,20.47
2022-09-03T10:31:56.328Z,20.59
2022-09-03T10:32:56.297Z,20.73
2022-09-03T10:33:56.281Z,20.80
2022-09-03T10:34:56.286Z,20.87
2022-09-03T10:35:56.255Z,20.92
2022-09-03T10:36:56.249Z,20.95
2022-09-03T10:37:56.544Z,20.79
2022-09-03T10:38:56.215Z,20.73
2022-09-03T10:39:56.256Z,20.76
2022-09-03T10:40:56.217Z,20.77
2022-09-03T10:41:56.252Z,20.79
2022-09-03T10:42:56.173Z,20.73
2022-09-03T10:43:56.178Z,20.74
2022-09-03T10:44:56.177Z,20.79
2022-09-03T10:45:56.234Z,20.66
2022-09-03T10:46:56.130Z,20.52
2022-09-03T10:47:56.158Z,20.43
2022-09-03T10:48:56.099Z,20.41
2022-09-03T10:49:56.090Z,20.51
2022-09-03T10:50:56.120Z,20.55
2022-09-03T10:51:56.096Z,20.57
2022-09-03T10:52:56.051Z,20.57
2022-09-03T10:53:56.049Z,20.48
2022-09-03T10:54:56.045Z,20.41
2022-09-03T10:55:56.024Z,20.39
2022-09-03T10:56:56.030Z,20.32
2022-09-03T10:57:56.005Z,20.39
2022-09-03T10:58:55.982Z,20.43
2022-09-03T10:59:55.977Z,20.52
2022-09-03T11:00:56.021Z,20.62
2022-09-03T11:01:56.026Z,20.76
2022-09-03T11:02:55.986Z,20.85
2022-09-03T11:03:55.969Z,20.92
2022-09-03T11:04:55.913Z,21.04
2022-09-03T11:05:55.924Z,21.16
2022-09-03T11:06:55.912Z,21.19
2022-09-03T11:07:55.883Z,21.03
2022-09-03T11:08:55.876Z,20.97
2022-09-03T11:09:55.870Z,21.04
2022-09-03T11:10:55.854Z,21.24
2022-09-03T11:11:55.835Z,21.34
2022-09-03T11:12:55.877Z,21.46
2022-09-03T11:13:55.816Z,21.61
2022-09-03T11:14:55.795Z,21.59
2022-09-03T11:15:55.879Z,21.61
2022-09-03T11:16:55.776Z,21.53
2022-09-03T11:17:55.771Z,21.49
2022-09-03T11:18:55.759Z,21.67
2022-09-03T11:19:55.804Z,21.86
2022-09-03T11:20:55.747Z,22.03
2022-09-03T11:21:55.732Z,22.02
2022-09-03T11:22:55.708Z,22.12
2022-09-03T11:23:55.708Z,22.22
2022-09-03T11:24:55.687Z,22.33
2022-09-03T11:25:55.693Z,22.33
2022-09-03T11:26:55.662Z,22.37
2022-09-03T11:27:56.699Z,22.52
2022-09-03T11:28:55.636Z,22.57
2022-09-03T11:29:55.640Z,22.68
2022-09-03T11:30:55.681Z,22.73
2022-09-03T11:31:55.600Z,22.57
2022-09-03T11:32:55.949Z,22.52
2022-09-03T11:33:55.590Z,22.52
2022-09-03T11:34:55.579Z,22.61
2022-09-03T11:35:55.572Z,22.46
2022-09-03T11:36:55.593Z,22.57
2022-09-03T11:37:55.533Z,22.72
2022-09-03T11:38:55.552Z,22.68
2022-09-03T11:39:56.527Z,22.70
2022-09-03T11:40:55.521Z,22.73
2022-09-03T11:41:55.494Z,22.70
2022-09-03T11:42:55.494Z,22.82
2022-09-03T11:43:55.476Z,22.91
2022-09-03T11:44:55.483Z,22.94
2022-09-03T11:45:55.517Z,22.95
2022-09-03T11:46:55.455Z,22.92
2022-09-03T11:47:55.439Z,23.01
2022-09-03T11:48:55.429Z,23.15
2022-09-03T11:49:55.395Z,23.20
2022-09-03T11:50:55.424Z,23.28
2022-09-03T11:51:55.418Z,23.19
2022-09-03T11:52:55.367Z,23.16
2022-09-03T11:53:55.349Z,23.16
2022-09-03T11:54:55.357Z,23.13
2022-09-03T11:55:55.355Z,23.05
2022-09-03T11:56:55.330Z,23.05
2022-09-03T11:57:55.318Z,23.04
2022-09-03T11:58:55.307Z,23.05
2022-09-03T11:59:55.299Z,23.10
2022-09-03T12:00:55.293Z,23.05
2022-09-03T12:01:55.279Z,23.07
2022-09-03T12:02:58.763Z,23.12
2022-09-03T12:03:55.267Z,23.15
2022-09-03T12:04:55.839Z,23.20
2022-09-03T12:05:55.218Z,23.27
2022-09-03T12:06:55.211Z,23.33
2022-09-03T12:07:55.222Z,23.28
2022-09-03T12:08:55.181Z,23.32
2022-09-03T12:09:55.261Z,23.35
2022-09-03T12:10:55.162Z,23.43
2022-09-03T12:11:55.171Z,23.51
2022-09-03T12:12:55.186Z,23.57
2022-09-03T12:13:55.132Z,23.58
2022-09-03T12:14:55.143Z,23.66
2022-09-03T12:15:55.184Z,23.75
2022-09-03T12:16:55.146Z,23.80
2022-09-03T12:17:55.132Z,23.79
2022-09-03T12:18:55.073Z,23.68
2022-09-03T12:19:55.064Z,23.63
2022-09-03T12:20:55.065Z,23.57
2022-09-03T12:21:55.052Z,23.58
2022-09-03T12:22:55.027Z,23.63
2022-09-03T12:23:58.167Z,23.72
2022-09-03T12:24:55.009Z,23.80
2022-09-03T12:25:55.068Z,23.90
2022-09-03T12:26:54.978Z,23.90
2022-09-03T12:27:54.987Z,23.95
2022-09-03T12:28:54.958Z,24.00
2022-09-03T12:29:54.957Z,24.08
2022-09-03T12:30:55.022Z,24.12
2022-09-03T12:31:54.928Z,24.15
2022-09-03T12:32:54.917Z,24.20
2022-09-03T12:33:54.922Z,24.21
2022-09-03T12:34:54.943Z,24.16
2022-09-03T12:35:58.682Z,24.16
2022-09-03T12:36:54.893Z,24.21
2022-09-03T12:38:13.839Z,24.15
2022-09-03T12:39:12.756Z,24.09
2022-09-03T12:40:11.281Z,24.10
2022-09-03T12:41:55.832Z,24.08
2022-09-03T12:43:37.004Z,24.15
2022-09-03T12:43:56.115Z,24.21
2022-09-03T12:44:54.803Z,24.27
2022-09-03T12:46:10.903Z,24.34
2022-09-03T12:47:33.843Z,24.46
2022-09-03T12:47:55.878Z,24.58
2022-09-03T12:49:55.750Z,24.77
2022-09-03T12:50:56.784Z,24.85
2022-09-03T12:51:58.147Z,24.91
2022-09-03T12:52:55.698Z,24.88
2022-09-03T12:53:54.696Z,24.84